Time;durP1;ratioP1;P1;durP2;ratioP2;P2;SDS_P1;SDS_P2;PMS_P1;PMS_P2;Temp;Humidity;BMP_temperature;BMP_pressure;BME280_temperature;BME280_humidity;BME280_pressure;Samples;Min_cycle;Max_cycle;Signal;HPM_P1;HPM_P2
2022/08/24 00:01:45;;;;;;;11.27;2.42;;;;;;;;;;4183870;28;20033;-61
2022/08/24 00:03:46;;;;;;;21.02;3.55;;;;;;;;;;4181993;28;20087;-60
2022/08/24 00:05:47;;;;;;;7.70;2.95;;;;;;;;;;4181768;28;20526;-60
2022/08/24 00:07:48;;;;;;;12.38;2.65;;;;;;;;;;4181414;28;20045;-60
2022/08/24 00:09:49;;;;;;;9.13;2.70;;;;;;;;;;4180757;28;20036;-60
2022/08/24 00:11:50;;;;;;;8.18;2.72;;;;;;;;;;4181652;28;20053;-61
2022/08/24 00:13:51;;;;;;;15.70;3.08;;;;;;;;;;4181591;28;20072;-61
2022/08/24 00:15:55;;;;;;;9.50;2.42;;;;;;;;;;4181994;28;20036;-62
2022/08/24 00:17:56;;;;;;;8.80;2.37;;;;;;;;;;4185384;28;20102;-61
2022/08/24 00:19:58;;;;;;;6.65;2.15;;;;;;;;;;4214952;28;20032;-61
2022/08/24 00:21:59;;;;;;;8.25;2.47;;;;;;;;;;4202681;28;20040;-61
2022/08/24 00:24:00;;;;;;;10.55;2.80;;;;;;;;;;4197904;28;20093;-60
2022/08/24 00:26:00;;;;;;;7.07;2.42;;;;;;;;;;4200633;28;20111;-60
2022/08/24 00:28:02;;;;;;;4.07;2.30;;;;;;;;;;4184376;28;20044;-60
2022/08/24 00:30:07;;;;;;;7.72;2.42;;;;;;;;;;4194613;28;20090;-60
2022/08/24 00:32:08;;;;;;;6.78;2.60;;;;;;;;;;4192248;28;20082;-60
2022/08/24 00:34:09;;;;;;;5.97;2.30;;;;;;;;;;4181383;28;20127;-59
2022/08/24 00:36:10;;;;;;;6.10;2.15;;;;;;;;;;4191494;28;20175;-59
2022/08/24 00:38:11;;;;;;;6.93;2.40;;;;;;;;;;4185859;28;20040;-60
2022/08/24 00:40:18;;;;;;;4.93;2.40;;;;;;;;;;4192661;28;20086;-61
2022/08/24 00:42:18;;;;;;;8.00;2.53;;;;;;;;;;4183854;28;20055;-60
2022/08/24 00:44:20;;;;;;;4.88;2.35;;;;;;;;;;4195314;28;20032;-61
2022/08/24 00:46:23;;;;;;;6.38;2.42;;;;;;;;;;4181036;28;20044;-61
2022/08/24 00:48:26;;;;;;;3.63;2.08;;;;;;;;;;4183751;28;20068;-59
2022/08/24 00:50:30;;;;;;;5.47;2.40;;;;;;;;;;4178959;28;20102;-62
2022/08/24 00:52:47;;;;;;;10.13;2.85;;;;;;;;;;4187109;28;20069;-61
2022/08/24 00:54:51;;;;;;;14.02;2.70;;;;;;;;;;4189317;28;20036;-61
2022/08/24 00:56:57;;;;;;;13.77;3.05;;;;;;;;;;4182449;28;20025;-61
2022/08/24 00:59:04;;;;;;;14.60;2.50;;;;;;;;;;4185709;28;20028;-62
2022/08/24 01:01:06;;;;;;;5.50;2.30;;;;;;;;;;4182608;28;20036;-62
2022/08/24 01:03:07;;;;;;;9.07;2.45;;;;;;;;;;4181726;28;20538;-61
2022/08/24 01:05:09;;;;;;;15.75;2.72;;;;;;;;;;4188231;28;20431;-61
2022/08/24 01:07:10;;;;;;;14.90;2.90;;;;;;;;;;4180666;28;20052;-62
2022/08/24 01:09:12;;;;;;;7.07;2.50;;;;;;;;;;4180230;28;20449;-62
2022/08/24 01:11:15;;;;;;;6.95;2.83;;;;;;;;;;4180603;28;20049;-62
2022/08/24 01:13:19;;;;;;;9.65;2.78;;;;;;;;;;4180698;28;20072;-62
2022/08/24 01:15:21;;;;;;;10.13;3.85;;;;;;;;;;4180687;28;20086;-62
2022/08/24 01:19:47;;;;;;;6.97;2.40;;;;;;;;;;4182114;28;20033;-61
2022/08/24 01:22:01;;;;;;;8.52;2.30;;;;;;;;;;4179702;28;20032;-62
2022/08/24 01:24:03;;;;;;;8.60;2.83;;;;;;;;;;4180556;28;20090;-61
2022/08/24 01:26:05;;;;;;;7.93;2.85;;;;;;;;;;4180477;28;20029;-61
2022/08/24 01:28:09;;;;;;;7.45;2.70;;;;;;;;;;4180295;28;20091;-62
2022/08/24 01:30:12;;;;;;;6.03;2.20;;;;;;;;;;4174747;28;20032;-62
2022/08/24 01:32:13;;;;;;;7.25;2.70;;;;;;;;;;4180529;28;20083;-62
2022/08/24 01:34:14;;;;;;;6.40;2.20;;;;;;;;;;4180620;28;20037;-62
2022/08/24 01:36:35;;;;;;;10.23;2.38;;;;;;;;;;4180419;28;20025;-62
2022/08/24 01:38:36;;;;;;;5.88;2.03;;;;;;;;;;4180618;28;20041;-62
2022/08/24 01:40:42;;;;;;;5.45;2.20;;;;;;;;;;4180013;28;20033;-62
2022/08/24 01:42:50;;;;;;;5.53;2.00;;;;;;;;;;4180718;28;20186;-61
2022/08/24 01:44:50;;;;;;;5.93;2.10;;;;;;;;;;4180566;28;20037;-63
2022/08/24 01:46:53;;;;;;;4.43;1.95;;;;;;;;;;4180711;28;20083;-63
2022/08/24 01:48:56;;;;;;;4.60;2.40;;;;;;;;;;4180387;28;20063;-62
2022/08/24 01:50:57;;;;;;;5.97;2.40;;;;;;;;;;4181020;28;20051;-62
2022/08/24 01:53:01;;;;;;;9.27;2.47;;;;;;;;;;4163049;28;20119;-63
2022/08/24 01:55:04;;;;;;;5.82;2.30;;;;;;;;;;4180419;28;20139;-62
2022/08/24 01:57:05;;;;;;;3.00;2.03;;;;;;;;;;4180727;28;20079;-62
2022/08/24 01:59:06;;;;;;;4.57;2.42;;;;;;;;;;4180346;28;20037;-62
2022/08/24 02:01:07;;;;;;;3.70;1.67;;;;;;;;;;4179817;28;20029;-62
2022/08/24 02:03:11;;;;;;;2.95;2.38;;;;;;;;;;4180088;28;20092;-62
2022/08/24 02:05:12;;;;;;;5.00;2.45;;;;;;;;;;4180199;28;20083;-62
2022/08/24 02:07:13;;;;;;;4.22;2.00;;;;;;;;;;4179889;28;20484;-63
2022/08/24 02:09:15;;;;;;;6.63;2.20;;;;;;;;;;4180018;28;20037;-63
2022/08/24 02:11:22;;;;;;;3.88;2.20;;;;;;;;;;4179878;28;20045;-62
2022/08/24 02:13:23;;;;;;;3.75;1.95;;;;;;;;;;4180039;28;20033;-62
2022/08/24 02:15:31;;;;;;;2.65;1.92;;;;;;;;;;4180823;28;20035;-62
2022/08/24 02:17:35;;;;;;;4.82;2.00;;;;;;;;;;4180409;28;20037;-62
2022/08/24 02:19:36;;;;;;;2.88;2.00;;;;;;;;;;4179930;28;20033;-62
2022/08/24 02:21:37;;;;;;;4.78;2.15;;;;;;;;;;4180196;28;20040;-63
2022/08/24 02:23:40;;;;;;;2.33;1.80;;;;;;;;;;4180213;28;20033;-62
2022/08/24 02:25:41;;;;;;;2.33;1.88;;;;;;;;;;4180034;28;20115;-62
2022/08/24 02:27:42;;;;;;;5.07;2.30;;;;;;;;;;4179811;28;20045;-61
2022/08/24 02:29:42;;;;;;;4.68;1.90;;;;;;;;;;4180508;28;20029;-62
2022/08/24 02:31:43;;;;;;;3.92;1.90;;;;;;;;;;4180461;28;20468;-61
2022/08/24 02:33:47;;;;;;;3.58;2.50;;;;;;;;;;4183170;28;20037;-62
2022/08/24 02:35:48;;;;;;;3.30;2.25;;;;;;;;;;4183655;28;20435;-61
2022/08/24 02:37:49;;;;;;;3.85;1.88;;;;;;;;;;4183064;28;20354;-61
2022/08/24 02:39:51;;;;;;;3.88;1.95;;;;;;;;;;4183148;28;20043;-62
2022/08/24 02:41:52;;;;;;;4.32;1.65;;;;;;;;;;4182934;28;20032;-62
2022/08/24 02:43:53;;;;;;;2.20;2.00;;;;;;;;;;4182486;28;20075;-61
2022/08/24 02:45:54;;;;;;;4.15;2.10;;;;;;;;;;4183578;28;20025;-62
2022/08/24 02:47:55;;;;;;;2.88;1.92;;;;;;;;;;4182459;28;20120;-62
2022/08/24 02:49:56;;;;;;;2.72;1.80;;;;;;;;;;4183224;28;20499;-62
2022/08/24 02:51:57;;;;;;;3.90;2.10;;;;;;;;;;4182621;28;20037;-62
2022/08/24 02:53:58;;;;;;;2.25;1.80;;;;;;;;;;4183167;28;20090;-62
2022/08/24 02:55:59;;;;;;;1.90;1.67;;;;;;;;;;4183244;28;20423;-62
2022/08/24 02:58:00;;;;;;;3.35;1.92;;;;;;;;;;4183804;28;20009;-63
2022/08/24 03:00:01;;;;;;;2.05;1.73;;;;;;;;;;4182848;28;20033;-61
2022/08/24 03:02:05;;;;;;;2.22;1.77;;;;;;;;;;4183527;28;20098;-61
2022/08/24 03:04:06;;;;;;;1.70;1.58;;;;;;;;;;4182476;28;20094;-61
2022/08/24 03:06:07;;;;;;;4.70;1.98;;;;;;;;;;4183000;28;20051;-62
2022/08/24 03:08:08;;;;;;;4.45;1.80;;;;;;;;;;4183061;28;20094;-61
2022/08/24 03:10:09;;;;;;;2.15;1.45;;;;;;;;;;4182628;28;20060;-62
2022/08/24 03:12:10;;;;;;;4.45;1.85;;;;;;;;;;4182929;28;20037;-62
2022/08/24 03:14:12;;;;;;;2.85;1.90;;;;;;;;;;4182474;28;20029;-62
2022/08/24 03:16:12;;;;;;;1.73;1.45;;;;;;;;;;4182464;28;20048;-62
2022/08/24 03:18:13;;;;;;;2.90;1.75;;;;;;;;;;4183057;28;20083;-62
2022/08/24 03:20:16;;;;;;;2.70;1.80;;;;;;;;;;4182576;28;20037;-61
2022/08/24 03:22:17;;;;;;;2.67;1.70;;;;;;;;;;4182631;28;20037;-63
2022/08/24 03:24:18;;;;;;;1.98;1.58;;;;;;;;;;4182119;28;20395;-62
2022/08/24 03:26:19;;;;;;;2.13;1.60;;;;;;;;;;4183013;28;20431;-61
2022/08/24 03:28:22;;;;;;;4.28;2.03;;;;;;;;;;4182332;28;20045;-62
2022/08/24 03:30:25;;;;;;;3.70;1.83;;;;;;;;;;4181855;28;20087;-62
2022/08/24 03:32:26;;;;;;;2.00;1.80;;;;;;;;;;4182254;28;20098;-61
2022/08/24 03:34:27;;;;;;;2.10;1.70;;;;;;;;;;4182729;28;20074;-62
2022/08/24 03:36:28;;;;;;;1.92;1.65;;;;;;;;;;4182607;28;20448;-61
2022/08/24 03:38:31;;;;;;;2.42;1.40;;;;;;;;;;4182080;28;20376;-61
2022/08/24 03:40:33;;;;;;;1.33;1.23;;;;;;;;;;4182821;28;20013;-62
2022/08/24 03:42:33;;;;;;;2.22;1.60;;;;;;;;;;4181985;28;20037;-62
2022/08/24 03:44:35;;;;;;;2.05;1.58;;;;;;;;;;4181574;28;20032;-62
2022/08/24 03:46:37;;;;;;;1.75;1.65;;;;;;;;;;4182006;28;20428;-62
2022/08/24 03:48:39;;;;;;;2.42;1.75;;;;;;;;;;4166576;28;20041;-61
2022/08/24 03:50:44;;;;;;;1.85;1.67;;;;;;;;;;4182123;28;20534;-62
2022/08/24 03:52:45;;;;;;;2.00;1.50;;;;;;;;;;4181703;28;20032;-61
2022/08/24 03:54:51;;;;;;;3.15;1.67;;;;;;;;;;4182378;28;20037;-61
2022/08/24 03:56:52;;;;;;;1.83;1.67;;;;;;;;;;4181536;28;20103;-62
2022/08/24 03:58:53;;;;;;;2.45;1.75;;;;;;;;;;4182043;28;20037;-62
2022/08/24 04:00:54;;;;;;;2.08;1.50;;;;;;;;;;4181921;28;20055;-62
2022/08/24 04:02:55;;;;;;;2.05;1.70;;;;;;;;;;4182444;28;20037;-62
2022/08/24 04:04:56;;;;;;;1.73;1.45;;;;;;;;;;4181866;28;20117;-61
2022/08/24 04:06:57;;;;;;;2.60;1.38;;;;;;;;;;4181613;28;20044;-62
2022/08/24 04:08:58;;;;;;;1.90;1.70;;;;;;;;;;4182021;28;20045;-61
2022/08/24 04:11:00;;;;;;;2.60;1.30;;;;;;;;;;4181663;28;20045;-62
2022/08/24 04:13:01;;;;;;;2.80;1.85;;;;;;;;;;4181728;28;20846;-62
2022/08/24 04:15:02;;;;;;;1.98;1.73;;;;;;;;;;4182129;28;20033;-61
2022/08/24 04:17:03;;;;;;;2.17;1.65;;;;;;;;;;4181565;28;20530;-61
2022/08/24 04:19:07;;;;;;;2.53;1.30;;;;;;;;;;4181794;28;20314;-61
2022/08/24 04:21:19;;;;;;;1.65;1.42;;;;;;;;;;4182039;28;20464;-61
2022/08/24 04:23:20;;;;;;;1.73;1.63;;;;;;;;;;4181127;28;20091;-62
2022/08/24 04:25:21;;;;;;;3.10;1.90;;;;;;;;;;4181966;28;20033;-62
2022/08/24 04:27:22;;;;;;;2.05;1.70;;;;;;;;;;4181637;28;20045;-61
2022/08/24 04:29:29;;;;;;;1.90;1.70;;;;;;;;;;4176242;28;20098;-61
2022/08/24 04:31:30;;;;;;;2.55;1.30;;;;;;;;;;4181446;28;20091;-61
2022/08/24 04:33:33;;;;;;;2.35;1.38;;;;;;;;;;4181104;28;20389;-62
2022/08/24 04:35:41;;;;;;;2.75;1.52;;;;;;;;;;4181473;28;20021;-61
2022/08/24 04:37:42;;;;;;;1.88;1.50;;;;;;;;;;4181498;28;20041;-62
2022/08/24 04:39:43;;;;;;;3.08;1.80;;;;;;;;;;4181449;28;20082;-61
2022/08/24 04:41:44;;;;;;;1.83;1.73;;;;;;;;;;4163464;28;20358;-62
2022/08/24 04:43:46;;;;;;;2.28;1.60;;;;;;;;;;4181492;28;20120;-61
2022/08/24 04:45:47;;;;;;;1.83;1.30;;;;;;;;;;4195619;28;20048;-62
2022/08/24 04:47:48;;;;;;;1.98;1.65;;;;;;;;;;4197108;28;20071;-63
2022/08/24 04:49:49;;;;;;;1.52;1.40;;;;;;;;;;4198396;28;20052;-62
2022/08/24 04:51:50;;;;;;;1.30;1.20;;;;;;;;;;4197116;28;20060;-61
2022/08/24 04:53:51;;;;;;;1.40;1.30;;;;;;;;;;4197905;28;20025;-62
2022/08/24 04:55:51;;;;;;;1.50;1.40;;;;;;;;;;4197267;28;20033;-61
2022/08/24 04:57:59;;;;;;;2.33;1.70;;;;;;;;;;4198338;28;20446;-62
2022/08/24 04:59:59;;;;;;;1.20;1.10;;;;;;;;;;4197092;28;20090;-61
2022/08/24 05:02:03;;;;;;;2.05;1.55;;;;;;;;;;4198035;28;21193;-62
2022/08/24 05:04:04;;;;;;;1.52;1.33;;;;;;;;;;4197793;28;20090;-61
2022/08/24 05:06:05;;;;;;;1.70;1.60;;;;;;;;;;4198417;28;20123;-62
2022/08/24 05:08:06;;;;;;;1.45;1.35;;;;;;;;;;4197572;28;20045;-61
2022/08/24 05:10:09;;;;;;;1.55;1.45;;;;;;;;;;4179951;28;20033;-61
2022/08/24 05:12:10;;;;;;;2.85;1.40;;;;;;;;;;4197745;28;20056;-61
2022/08/24 05:14:12;;;;;;;1.50;1.40;;;;;;;;;;4197271;28;20025;-62
2022/08/24 05:16:14;;;;;;;1.40;1.30;;;;;;;;;;4197234;28;20037;-62
2022/08/24 05:18:19;;;;;;;1.70;1.25;;;;;;;;;;4197428;28;20090;-62
2022/08/24 05:20:20;;;;;;;1.40;1.30;;;;;;;;;;4197082;28;20067;-62
2022/08/24 05:22:21;;;;;;;1.00;1.00;;;;;;;;;;4197378;28;20032;-61
2022/08/24 05:24:22;;;;;;;2.35;1.70;;;;;;;;;;4198240;28;20059;-61
2022/08/24 05:26:27;;;;;;;1.08;0.98;;;;;;;;;;4197315;28;20035;-61
2022/08/24 05:28:28;;;;;;;1.30;1.17;;;;;;;;;;4197174;28;20032;-62
2022/08/24 05:30:28;;;;;;;1.35;1.25;;;;;;;;;;4196778;28;20029;-61
2022/08/24 05:32:29;;;;;;;1.55;1.40;;;;;;;;;;4197406;28;20033;-62
2022/08/24 05:34:30;;;;;;;1.15;1.05;;;;;;;;;;4197391;28;20067;-62
2022/08/24 05:36:33;;;;;;;1.85;1.55;;;;;;;;;;4197673;28;20033;-62
2022/08/24 05:38:34;;;;;;;1.30;1.20;;;;;;;;;;4197059;28;20033;-62
2022/08/24 05:40:35;;;;;;;1.23;1.13;;;;;;;;;;4196672;28;20067;-62
2022/08/24 05:42:39;;;;;;;1.73;1.63;;;;;;;;;;4197031;28;20036;-62
2022/08/24 05:44:40;;;;;;;1.60;1.50;;;;;;;;;;4197097;28;20188;-62
2022/08/24 05:46:41;;;;;;;1.58;1.30;;;;;;;;;;4197314;28;20044;-61
2022/08/24 05:48:43;;;;;;;1.27;1.10;;;;;;;;;;4197098;28;20045;-62
2022/08/24 05:50:51;;;;;;;1.02;1.02;;;;;;;;;;4196575;28;20437;-61
2022/08/24 05:52:52;;;;;;;1.45;1.33;;;;;;;;;;4197123;28;20048;-61
2022/08/24 05:54:55;;;;;;;1.42;1.33;;;;;;;;;;4197243;28;20028;-61
2022/08/24 05:57:00;;;;;;;1.40;1.30;;;;;;;;;;4196804;28;20430;-61
2022/08/24 05:59:01;;;;;;;1.27;1.15;;;;;;;;;;4196811;28;20162;-61
2022/08/24 06:01:09;;;;;;;1.98;1.08;;;;;;;;;;4197438;28;20020;-61
2022/08/24 06:03:11;;;;;;;2.55;1.38;;;;;;;;;;4196920;28;20033;-61
2022/08/24 06:05:12;;;;;;;1.17;1.08;;;;;;;;;;4196961;28;20029;-62
2022/08/24 06:07:15;;;;;;;2.20;1.30;;;;;;;;;;4194332;28;20472;-62
2022/08/24 06:09:16;;;;;;;1.20;1.00;;;;;;;;;;4196868;28;20081;-61
2022/08/24 06:11:29;;;;;;;1.63;1.30;;;;;;;;;;4196790;28;20127;-62
2022/08/24 06:13:30;;;;;;;1.70;1.35;;;;;;;;;;4196667;28;20082;-62
2022/08/24 06:15:32;;;;;;;2.03;1.20;;;;;;;;;;4196868;28;20439;-61
2022/08/24 06:17:33;;;;;;;1.35;1.25;;;;;;;;;;4197614;28;20021;-62
2022/08/24 06:19:37;;;;;;;1.63;1.52;;;;;;;;;;4196835;28;20036;-62
2022/08/24 06:21:41;;;;;;;1.50;1.40;;;;;;;;;;4196593;28;20458;-61
2022/08/24 06:23:43;;;;;;;1.20;1.10;;;;;;;;;;4196754;28;20426;-60
2022/08/24 06:28:05;;;;;;;1.58;1.25;;;;;;;;;;4198568;28;20029;-62
2022/08/24 06:30:09;;;;;;;1.40;1.30;;;;;;;;;;4196626;28;20090;-62
2022/08/24 06:32:10;;;;;;;1.23;1.13;;;;;;;;;;4196978;28;20098;-61
2022/08/24 06:34:12;;;;;;;1.35;1.17;;;;;;;;;;4196464;28;20033;-62
2022/08/24 06:36:13;;;;;;;1.15;1.00;;;;;;;;;;4197515;28;20026;-62
2022/08/24 06:38:14;;;;;;;1.27;1.17;;;;;;;;;;4197006;28;20478;-61
2022/08/24 06:40:15;;;;;;;1.20;1.10;;;;;;;;;;4196560;28;20044;-62
2022/08/24 06:42:16;;;;;;;1.23;1.10;;;;;;;;;;4196147;28;20387;-62
2022/08/24 06:44:17;;;;;;;1.17;1.08;;;;;;;;;;4194435;28;20035;-61
2022/08/24 06:46:18;;;;;;;1.45;1.10;;;;;;;;;;4180670;28;20087;-62
2022/08/24 06:48:22;;;;;;;1.20;1.10;;;;;;;;;;4179813;28;20051;-62
2022/08/24 06:50:23;;;;;;;1.13;1.02;;;;;;;;;;4179550;28;20098;-61
2022/08/24 06:52:25;;;;;;;1.35;1.25;;;;;;;;;;4179493;28;20550;-61
2022/08/24 06:54:26;;;;;;;2.05;1.33;;;;;;;;;;4179849;28;20362;-62
2022/08/24 06:56:27;;;;;;;1.58;1.38;;;;;;;;;;4179890;28;20120;-62
2022/08/24 06:58:31;;;;;;;1.27;1.17;;;;;;;;;;4179758;28;20040;-61
2022/08/24 07:00:32;;;;;;;1.40;1.30;;;;;;;;;;4179626;28;20082;-61
2022/08/24 07:02:33;;;;;;;1.20;1.10;;;;;;;;;;4179727;28;20473;-61
2022/08/24 07:04:33;;;;;;;1.15;1.05;;;;;;;;;;4179141;28;20075;-62
2022/08/24 07:06:35;;;;;;;1.40;1.30;;;;;;;;;;4180193;28;20021;-61
2022/08/24 07:08:36;;;;;;;1.30;1.20;;;;;;;;;;4179836;28;20428;-62
2022/08/24 07:10:38;;;;;;;1.25;1.15;;;;;;;;;;4179028;28;20056;-62
2022/08/24 07:12:39;;;;;;;1.20;1.10;;;;;;;;;;4179626;28;20049;-62
2022/08/24 07:14:39;;;;;;;1.50;1.40;;;;;;;;;;4177844;28;20526;-62
2022/08/24 07:16:49;;;;;;;1.30;1.20;;;;;;;;;;4179632;28;20037;-62
2022/08/24 07:18:50;;;;;;;1.08;0.98;;;;;;;;;;4182961;28;20527;-62
2022/08/24 07:20:56;;;;;;;1.50;1.40;;;;;;;;;;4182385;28;20043;-62
2022/08/24 07:23:00;;;;;;;1.35;1.25;;;;;;;;;;4182637;28;20432;-62
2022/08/24 07:25:01;;;;;;;1.10;1.00;;;;;;;;;;4183385;28;20021;-61
2022/08/24 07:27:02;;;;;;;0.98;0.98;;;;;;;;;;4182838;28;20064;-61
2022/08/24 07:29:06;;;;;;;1.05;1.05;;;;;;;;;;4183009;28;20041;-62
2022/08/24 07:31:12;;;;;;;1.80;1.10;;;;;;;;;;4182422;28;20083;-62
2022/08/24 07:33:13;;;;;;;1.13;1.00;;;;;;;;;;4181895;28;20045;-62
2022/08/24 07:35:14;;;;;;;1.30;1.20;;;;;;;;;;4182464;28;20432;-62
2022/08/24 07:37:15;;;;;;;1.17;1.08;;;;;;;;;;4182806;28;20064;-62
2022/08/24 07:39:15;;;;;;;1.48;1.38;;;;;;;;;;4182445;28;20124;-62
2022/08/24 07:41:17;;;;;;;1.52;1.42;;;;;;;;;;4182412;28;20037;-62
2022/08/24 07:43:19;;;;;;;1.20;1.10;;;;;;;;;;4182414;28;20098;-62
2022/08/24 07:45:21;;;;;;;1.30;1.10;;;;;;;;;;4182903;28;20033;-62
2022/08/24 07:47:25;;;;;;;1.30;1.20;;;;;;;;;;4182220;28;20040;-64
2022/08/24 07:49:25;;;;;;;2.13;1.38;;;;;;;;;;4181527;28;20040;-61
2022/08/24 07:51:26;;;;;;;1.20;1.02;;;;;;;;;;4182138;28;20056;-61
2022/08/24 07:53:28;;;;;;;0.95;0.95;;;;;;;;;;4183025;28;20025;-62
2022/08/24 07:55:28;;;;;;;1.30;1.20;;;;;;;;;;4182572;28;20451;-61
2022/08/24 07:57:30;;;;;;;1.00;0.90;;;;;;;;;;4182597;28;20029;-61
2022/08/24 07:59:31;;;;;;;1.25;1.15;;;;;;;;;;4182293;28;20021;-61
2022/08/24 08:01:35;;;;;;;1.17;1.10;;;;;;;;;;4181742;28;20033;-62
2022/08/24 08:03:39;;;;;;;1.17;1.13;;;;;;;;;;4182043;28;20033;-62
2022/08/24 08:05:40;;;;;;;2.10;1.17;;;;;;;;;;4182726;28;20075;-62
2022/08/24 08:07:41;;;;;;;1.20;1.00;;;;;;;;;;4181821;28;20116;-61
2022/08/24 08:09:45;;;;;;;1.88;1.10;;;;;;;;;;4182874;28;20017;-61
2022/08/24 08:11:45;;;;;;;1.25;1.15;;;;;;;;;;4181398;28;20414;-62
2022/08/24 08:13:46;;;;;;;1.20;1.10;;;;;;;;;;4182719;28;20063;-62
2022/08/24 08:15:47;;;;;;;1.15;1.08;;;;;;;;;;4182337;28;20029;-63
2022/08/24 08:17:48;;;;;;;1.30;1.20;;;;;;;;;;4182056;28;20099;-62
2022/08/24 08:19:49;;;;;;;1.08;1.05;;;;;;;;;;4181654;28;20029;-62
2022/08/24 08:24:14;;;;;;;1.13;1.02;;;;;;;;;;4182720;28;20024;-62
2022/08/24 08:26:18;;;;;;;1.05;0.95;;;;;;;;;;4181900;28;20028;-62
2022/08/24 08:28:19;;;;;;;;;;;;;;;;;;4181715;28;20041;-61
2022/08/24 08:30:20;;;;;;;1.23;1.13;;;;;;;;;;4181247;28;19909;-62
2022/08/24 08:32:21;;;;;;;1.30;1.20;;;;;;;;;;4181874;28;20124;-60
2022/08/24 08:34:22;;;;;;;1.40;1.30;;;;;;;;;;4181386;28;20025;-61
2022/08/24 08:36:25;;;;;;;1.48;1.38;;;;;;;;;;4181699;28;20385;-61
2022/08/24 08:38:26;;;;;;;1.60;1.10;;;;;;;;;;4181847;28;20533;-61
2022/08/24 08:40:41;;;;;;;1.27;1.00;;;;;;;;;;4163851;28;20037;-62
2022/08/24 08:42:51;;;;;;;1.30;1.20;;;;;;;;;;4181541;28;20036;-61
2022/08/24 08:44:58;;;;;;;0.98;0.93;;;;;;;;;;4181514;28;20538;-62
2022/08/24 08:47:05;;;;;;;1.15;0.98;;;;;;;;;;4181507;28;20087;-63
2022/08/24 08:49:17;;;;;;;1.20;1.10;;;;;;;;;;4181389;28;20110;-62
2022/08/24 08:51:21;;;;;;;1.20;1.10;;;;;;;;;;4181200;28;20378;-61
2022/08/24 08:53:40;;;;;;;1.73;1.20;;;;;;;;;;4181387;28;20424;-60
2022/08/24 08:55:41;;;;;;;1.30;1.20;;;;;;;;;;4182120;28;20102;-61
2022/08/24 08:57:49;;;;;;;1.83;1.17;;;;;;;;;;4181542;28;20029;-60
2022/08/24 08:59:53;;;;;;;1.20;1.13;;;;;;;;;;4181291;28;20099;-61
2022/08/24 09:01:54;;;;;;;0.90;0.90;;;;;;;;;;4181395;28;20473;-63
2022/08/24 09:03:55;;;;;;;1.20;1.10;;;;;;;;;;4181528;28;20083;-62
2022/08/24 09:05:58;;;;;;;1.25;1.15;;;;;;;;;;4180376;28;20041;-62
2022/08/24 09:07:59;;;;;;;1.20;1.10;;;;;;;;;;4181131;28;20086;-62
2022/08/24 09:10:18;;;;;;;1.30;1.20;;;;;;;;;;4181129;28;20409;-62
2022/08/24 09:12:26;;;;;;;1.10;1.00;;;;;;;;;;4180964;28;20094;-62
2022/08/24 09:14:56;;;;;;;1.15;1.05;;;;;;;;;;4181020;28;20041;-61
2022/08/24 09:17:12;;;;;;;1.00;1.00;;;;;;;;;;4163936;28;20102;-62
2022/08/24 09:19:28;;;;;;;1.30;1.20;;;;;;;;;;4181234;28;20033;-62
2022/08/24 09:21:41;;;;;;;1.05;0.90;;;;;;;;;;4180525;28;20029;-62
2022/08/24 09:23:48;;;;;;;1.23;1.13;;;;;;;;;;4181251;28;20433;-61
2022/08/24 09:25:49;;;;;;;1.15;1.05;;;;;;;;;;4180889;28;20029;-61
2022/08/24 09:27:52;;;;;;;1.23;1.13;;;;;;;;;;4181528;28;20351;-61
2022/08/24 09:30:02;;;;;;;1.42;1.27;;;;;;;;;;4181590;28;20055;-61
2022/08/24 09:32:09;;;;;;;1.58;1.00;;;;;;;;;;4181092;28;20040;-62
2022/08/24 09:34:13;;;;;;;1.05;1.00;;;;;;;;;;4180929;28;20032;-61
2022/08/24 09:36:43;;;;;;;1.10;1.00;;;;;;;;;;4181152;28;20419;-62
2022/08/24 09:38:46;;;;;;;1.20;1.10;;;;;;;;;;4114392;28;20177;-61
2022/08/24 09:41:05;;;;;;;0.93;0.93;;;;;;;;;;4178027;28;20167;-62
2022/08/24 09:43:12;;;;;;;1.10;1.00;;;;;;;;;;4180275;28;20083;-62
2022/08/24 09:45:16;;;;;;;1.83;1.30;;;;;;;;;;4181246;28;20460;-63
2022/08/24 09:47:22;;;;;;;1.38;1.27;;;;;;;;;;4181054;28;20419;-62
2022/08/24 09:49:42;;;;;;;1.25;1.10;;;;;;;;;;4180800;28;20094;-61
2022/08/24 09:51:54;;;;;;;1.20;1.10;;;;;;;;;;4180160;28;20033;-61
2022/08/24 09:54:02;;;;;;;1.33;1.23;;;;;;;;;;4180455;28;20095;-62
2022/08/24 09:56:02;;;;;;;1.00;0.90;;;;;;;;;;4180578;28;20037;-62
2022/08/24 09:58:22;;;;;;;1.25;1.15;;;;;;;;;;4180683;28;20427;-62
2022/08/24 10:00:42;;;;;;;1.23;1.10;;;;;;;;;;4180098;28;20025;-61
2022/08/24 10:02:52;;;;;;;1.20;1.10;;;;;;;;;;4180479;28;20045;-62
2022/08/24 10:04:59;;;;;;;1.13;1.02;;;;;;;;;;4180785;28;20032;-62
2022/08/24 10:07:24;;;;;;;1.38;1.27;;;;;;;;;;4181236;28;20033;-62
2022/08/24 10:09:35;;;;;;;1.23;0.87;;;;;;;;;;4180035;28;20048;-61
2022/08/24 10:11:46;;;;;;;1.10;1.05;;;;;;;;;;4179655;28;20424;-62
2022/08/24 10:13:56;;;;;;;1.40;1.30;;;;;;;;;;4180131;28;20370;-62
2022/08/24 10:16:01;;;;;;;1.20;1.10;;;;;;;;;;4180114;28;20029;-62
2022/08/24 10:18:05;;;;;;;1.20;1.08;;;;;;;;;;4180256;28;20048;-62
2022/08/24 10:20:25;;;;;;;1.20;1.10;;;;;;;;;;4180039;28;20059;-62
2022/08/24 10:22:37;;;;;;;1.20;1.10;;;;;;;;;;4180302;28;20098;-62
2022/08/24 10:24:42;;;;;;;1.00;1.00;;;;;;;;;;4180066;28;20040;-62
2022/08/24 10:27:01;;;;;;;1.33;1.23;;;;;;;;;;4192809;28;20521;-62
2022/08/24 10:29:14;;;;;;;1.20;1.10;;;;;;;;;;4196334;28;20048;-63
2022/08/24 10:31:23;;;;;;;1.38;1.27;;;;;;;;;;4197107;28;20025;-63
2022/08/24 10:33:24;;;;;;;1.60;1.50;;;;;;;;;;4196473;28;20028;-62
2022/08/24 10:35:27;;;;;;;1.25;1.15;;;;;;;;;;4194404;28;20037;-62
2022/08/24 10:39:39;;;;;;;1.35;1.25;;;;;;;;;;4196721;28;20033;-62
2022/08/24 10:40:20;;;;;;;1.17;1.10;;;;;;;;;;4184601;28;20037;-62
2022/08/24 10:45:20;;;;;;;9.57;1.65;;;;;;;;;;4200738;28;20020;-61
2022/08/24 10:47:27;;;;;;;4.15;1.20;;;;;;;;;;4142186;28;20041;-61
2022/08/24 10:49:34;;;;;;;8.70;1.60;;;;;;;;;;4180229;28;20044;-61
2022/08/24 10:51:41;;;;;;;4.03;1.08;;;;;;;;;;4180025;28;20041;-61
2022/08/24 10:53:46;;;;;;;2.95;1.40;;;;;;;;;;4182182;28;20033;-61
2022/08/24 10:55:56;;;;;;;4.15;1.50;;;;;;;;;;4184739;28;20032;-61
2022/08/24 10:58:21;;;;;;;3.88;1.75;;;;;;;;;;4194414;28;20029;-60
2022/08/24 11:00:26;;;;;;;2.63;1.23;;;;;;;;;;4182766;28;20032;-61
2022/08/24 11:02:27;;;;;;;3.47;1.50;;;;;;;;;;4188189;28;20032;-60
2022/08/24 11:04:30;;;;;;;4.13;1.40;;;;;;;;;;4193863;28;20025;-60
2022/08/24 11:06:33;;;;;;;3.28;1.50;;;;;;;;;;4191232;28;20060;-61
2022/08/24 11:08:34;;;;;;;3.95;1.50;;;;;;;;;;4190612;28;20102;-60
2022/08/24 11:10:36;;;;;;;4.30;1.35;;;;;;;;;;4186253;28;20090;-61
2022/08/24 11:12:39;;;;;;;2.65;1.48;;;;;;;;;;4193160;28;20438;-60
2022/08/24 11:14:40;;;;;;;3.72;1.02;;;;;;;;;;4192565;28;20082;-61
2022/08/24 11:16:44;;;;;;;3.63;1.58;;;;;;;;;;4192850;28;20178;-60
2022/08/24 11:18:48;;;;;;;1.75;1.27;;;;;;;;;;4189242;28;20488;-61
2022/08/24 11:20:54;;;;;;;2.25;1.20;;;;;;;;;;4194182;28;20438;-60
2022/08/24 11:22:57;;;;;;;3.22;1.33;;;;;;;;;;4193252;28;20086;-61
2022/08/24 11:25:09;;;;;;;2.15;1.40;;;;;;;;;;4184861;28;20061;-61
2022/08/24 11:27:30;;;;;;;1.42;1.33;;;;;;;;;;4183059;28;20025;-61
2022/08/24 11:29:49;;;;;;;2.63;1.30;;;;;;;;;;4182334;28;20044;-62
2022/08/24 11:31:51;;;;;;;3.95;1.30;;;;;;;;;;4196607;28;20055;-60
2022/08/24 11:33:59;;;;;;;1.35;1.13;;;;;;;;;;4189053;28;20041;-59
2022/08/24 11:36:00;;;;;;;4.05;1.50;;;;;;;;;;4182538;28;20559;-60
2022/08/24 11:38:20;;;;;;;7.10;2.10;;;;;;;;;;4182221;28;20091;-61
2022/08/24 11:40:23;;;;;;;5.95;1.70;;;;;;;;;;4182442;28;20041;-59
2022/08/24 11:42:33;;;;;;;3.15;1.17;;;;;;;;;;4182585;28;20468;-59
2022/08/24 11:44:40;;;;;;;2.25;1.50;;;;;;;;;;4182772;28;20109;-59
2022/08/24 11:46:45;;;;;;;5.75;1.50;;;;;;;;;;4181372;28;20032;-59
2022/08/24 11:49:06;;;;;;;3.00;1.50;;;;;;;;;;4182210;28;20574;-59
2022/08/24 11:51:22;;;;;;;4.32;1.30;;;;;;;;;;4182057;28;20037;-61
2022/08/24 11:53:30;;;;;;;7.03;1.40;;;;;;;;;;4182585;28;20102;-61
2022/08/24 11:55:31;;;;;;;3.67;1.35;;;;;;;;;;4177802;28;20091;-61
2022/08/24 11:57:32;;;;;;;4.35;1.63;;;;;;;;;;4182451;28;20380;-61
2022/08/24 11:59:42;;;;;;;3.83;1.30;;;;;;;;;;4182588;28;20037;-62
2022/08/24 12:01:43;;;;;;;5.10;1.65;;;;;;;;;;4181843;28;20033;-59
2022/08/24 12:03:56;;;;;;;2.30;1.40;;;;;;;;;;4181836;28;20029;-60
2022/08/24 12:06:15;;;;;;;3.20;1.55;;;;;;;;;;4181920;28;20091;-60
2022/08/24 12:08:18;;;;;;;1.80;1.40;;;;;;;;;;4181968;28;20082;-60
2022/08/24 12:10:34;;;;;;;3.88;1.50;;;;;;;;;;4182003;28;20052;-60
2022/08/24 12:12:45;;;;;;;3.60;1.48;;;;;;;;;;4182554;28;20107;-60
2022/08/24 12:15:04;;;;;;;4.82;1.80;;;;;;;;;;4181504;28;20091;-60
2022/08/24 12:17:11;;;;;;;3.05;1.45;;;;;;;;;;4182133;28;20033;-60
2022/08/24 12:19:32;;;;;;;3.83;2.13;;;;;;;;;;4147786;28;20092;-60
2022/08/24 12:21:35;;;;;;;2.10;1.60;;;;;;;;;;4181821;28;20424;-60
2022/08/24 12:23:36;;;;;;;2.80;1.35;;;;;;;;;;4182125;28;20029;-60
2022/08/24 12:28:00;;;;;;;1.50;1.40;;;;;;;;;;4182685;28;20025;-60
2022/08/24 12:30:06;;;;;;;4.15;1.55;;;;;;;;;;4181006;28;20055;-59
2022/08/24 12:32:39;;;;;;;4.28;1.30;;;;;;;;;;4182546;28;20021;-60
2022/08/24 12:34:46;;;;;;;1.90;1.20;;;;;;;;;;4148495;28;20423;-60
2022/08/24 12:36:47;;;;;;;2.10;1.42;;;;;;;;;;4181588;28;20033;-60
2022/08/24 12:38:52;;;;;;;3.72;1.52;;;;;;;;;;4181751;28;20083;-60